Terminal Aerodrome Forecast
Issued by NWS

Home | Current Version | Previous Version | Text Only | Print | Product List | Glossary On
Versions: 1 2 3 4 5 6 7 8 9 10 11 12 13 14 15 16 17 18 19 20 21 22
000
FTUS43 KAPX 282330
TAFTVC
TAF
KTVC 282330Z 2900/2924 28008KT P6SM -SHSN OVC035
     FM290200 32006KT 6SM -SHSN OVC030
     FM290500 32005KT P6SM VCSH BKN035
     FM291600 31006KT P6SM VCSH BKN035=

USA.gov is the U.S. government's official web portal to all federal, state and local government web resources and services.